Time;durP1;ratioP1;P1;durP2;ratioP2;P2;SDS_P1;SDS_P2;PMS_P1;PMS_P2;Temp;Humidity;BMP_temperature;BMP_pressure;BME280_temperature;BME280_humidity;BME280_pressure;Samples;Min_cycle;Max_cycle;Signal;HPM_P1;HPM_P2
2023/12/15 00:02:25;;;;;;;6.00;2.47;;;;;;;;;;5077866;28;20048;-70
2023/12/15 00:06:07;;;;;;;5.47;2.53;;;;;;;;;;5075397;28;20102;-69
2023/12/15 00:09:47;;;;;;;4.40;2.53;;;;;;;;;;5077521;28;20493;-69
2023/12/15 00:13:28;;;;;;;7.68;2.65;;;;;;;;;;5082374;28;20081;-68
2023/12/15 00:17:09;;;;;;;7.15;2.60;;;;;;;;;;5074337;28;20079;-68
2023/12/15 00:20:51;;;;;;;6.57;2.25;;;;;;;;;;5079331;28;20040;-71
2023/12/15 00:24:33;;;;;;;10.13;2.80;;;;;;;;;;5078859;28;20052;-70
2023/12/15 00:28:14;;;;;;;10.63;4.20;;;;;;;;;;5080154;28;20044;-69
2023/12/15 00:31:55;;;;;;;6.72;2.33;;;;;;;;;;5076147;28;20075;-70
2023/12/15 00:35:37;;;;;;;6.93;2.42;;;;;;;;;;5081160;28;20719;-71
2023/12/15 00:39:17;;;;;;;4.85;2.40;;;;;;;;;;5080529;28;20058;-70
2023/12/15 00:42:58;;;;;;;4.93;2.17;;;;;;;;;;5078756;28;20043;-71
2023/12/15 00:46:39;;;;;;;6.00;2.72;;;;;;;;;;5071777;28;20056;-68
2023/12/15 00:50:20;;;;;;;5.15;2.25;;;;;;;;;;5079544;28;20088;-69
2023/12/15 00:54:00;;;;;;;5.13;2.50;;;;;;;;;;5076984;28;20265;-69
2023/12/15 00:57:41;;;;;;;4.65;2.47;;;;;;;;;;5083499;28;20121;-69
2023/12/15 01:01:22;;;;;;;5.75;2.72;;;;;;;;;;5079070;28;20411;-69
2023/12/15 01:05:05;;;;;;;5.93;2.28;;;;;;;;;;5082334;28;20040;-69
2023/12/15 01:08:46;;;;;;;6.57;2.50;;;;;;;;;;5078019;28;20388;-69
2023/12/15 01:12:27;;;;;;;6.35;2.13;;;;;;;;;;5079055;28;20055;-69
2023/12/15 01:16:08;;;;;;;4.22;1.88;;;;;;;;;;5085696;27;20032;-69
2023/12/15 01:19:48;;;;;;;6.20;1.92;;;;;;;;;;5080850;28;20044;-69
2023/12/15 01:23:29;;;;;;;6.85;1.75;;;;;;;;;;5075875;28;20126;-68
2023/12/15 01:27:09;;;;;;;3.03;1.60;;;;;;;;;;5079665;28;20479;-69
2023/12/15 01:30:50;;;;;;;3.13;1.77;;;;;;;;;;5077674;28;20047;-69
2023/12/15 01:34:30;;;;;;;3.20;1.77;;;;;;;;;;5078822;28;20109;-69
2023/12/15 01:38:10;;;;;;;8.35;1.65;;;;;;;;;;5078850;28;20130;-70
2023/12/15 01:41:52;;;;;;;2.45;1.33;;;;;;;;;;5075185;28;20141;-67
2023/12/15 01:45:32;;;;;;;3.08;1.70;;;;;;;;;;5071866;28;20498;-69
2023/12/15 01:49:13;;;;;;;2.95;1.55;;;;;;;;;;5085987;28;20048;-69
2023/12/15 01:52:53;;;;;;;3.97;1.65;;;;;;;;;;5078762;28;20052;-68
2023/12/15 01:56:33;;;;;;;2.97;1.73;;;;;;;;;;5072633;28;20050;-69
2023/12/15 02:00:20;;;;;;;6.60;1.80;;;;;;;;;;5078230;28;20056;-69
2023/12/15 02:04:00;;;;;;;2.33;1.55;;;;;;;;;;5079425;28;20075;-68
2023/12/15 02:07:40;;;;;;;6.80;2.00;;;;;;;;;;5072521;28;20509;-71
2023/12/15 02:11:22;;;;;;;6.25;2.60;;;;;;;;;;5079888;28;20040;-69
2023/12/15 02:15:02;;;;;;;4.82;2.00;;;;;;;;;;5074889;28;20047;-71
2023/12/15 02:18:44;;;;;;;3.05;1.40;;;;;;;;;;5071673;28;20435;-69
2023/12/15 02:22:24;;;;;;;6.13;1.70;;;;;;;;;;5077536;28;20054;-68
2023/12/15 02:26:05;;;;;;;6.00;1.90;;;;;;;;;;5071050;28;20411;-68
2023/12/15 02:29:45;;;;;;;3.58;1.67;;;;;;;;;;5076376;28;20048;-69
2023/12/15 02:33:25;;;;;;;3.28;1.58;;;;;;;;;;5077407;28;20467;-69
2023/12/15 02:37:06;;;;;;;5.47;1.88;;;;;;;;;;5079767;28;20044;-67
2023/12/15 02:40:47;;;;;;;5.57;1.83;;;;;;;;;;5084329;28;20036;-69
2023/12/15 02:44:29;;;;;;;8.15;2.28;;;;;;;;;;5077973;28;20040;-69
2023/12/15 02:48:09;;;;;;;4.00;2.10;;;;;;;;;;5075850;28;20259;-68
2023/12/15 02:51:50;;;;;;;3.47;2.20;;;;;;;;;;5082211;28;21612;-69
2023/12/15 02:55:30;;;;;;;3.53;1.80;;;;;;;;;;5071892;28;20126;-70
2023/12/15 02:59:10;;;;;;;6.50;1.90;;;;;;;;;;5079103;28;20109;-68
2023/12/15 03:02:52;;;;;;;5.28;1.98;;;;;;;;;;5084979;28;20504;-69
2023/12/15 03:06:35;;;;;;;8.02;1.98;;;;;;;;;;5079786;28;20601;-69
2023/12/15 03:10:16;;;;;;;5.55;1.58;;;;;;;;;;5078980;28;20385;-67
2023/12/15 03:13:57;;;;;;;2.55;1.27;;;;;;;;;;5078495;28;20063;-70
2023/12/15 03:17:37;;;;;;;3.60;1.75;;;;;;;;;;5073634;28;20506;-69
2023/12/15 03:21:18;;;;;;;4.07;1.50;;;;;;;;;;5075155;28;20074;-68
2023/12/15 03:24:58;;;;;;;6.47;1.58;;;;;;;;;;5072162;28;20112;-68
2023/12/15 03:28:39;;;;;;;6.70;1.50;;;;;;;;;;5074687;28;20279;-68
2023/12/15 03:32:19;;;;;;;3.42;1.58;;;;;;;;;;5084398;28;20067;-68
2023/12/15 03:35:59;;;;;;;3.30;1.38;;;;;;;;;;5080436;28;20424;-70
2023/12/15 03:39:40;;;;;;;6.05;1.70;;;;;;;;;;5078714;28;20529;-68
2023/12/15 03:43:21;;;;;;;4.10;1.30;;;;;;;;;;5081867;28;20140;-68
2023/12/15 03:47:01;;;;;;;5.32;1.65;;;;;;;;;;5080026;28;20090;-69
2023/12/15 03:50:42;;;;;;;6.03;1.50;;;;;;;;;;5081869;28;20062;-68
2023/12/15 03:54:23;;;;;;;6.45;1.52;;;;;;;;;;5076428;28;20162;-69
2023/12/15 03:58:04;;;;;;;3.10;1.13;;;;;;;;;;5077373;28;20044;-69
2023/12/15 04:01:45;;;;;;;4.35;1.05;;;;;;;;;;5074397;28;20101;-69
2023/12/15 04:05:27;;;;;;;4.45;1.25;;;;;;;;;;5074812;28;20040;-69
2023/12/15 04:09:11;;;;;;;2.67;1.10;;;;;;;;;;5080791;28;20445;-69
2023/12/15 04:12:51;;;;;;;6.88;1.33;;;;;;;;;;5081378;28;20094;-69
2023/12/15 04:16:31;;;;;;;3.20;1.17;;;;;;;;;;5077406;28;20150;-68
2023/12/15 04:20:12;;;;;;;3.80;1.45;;;;;;;;;;5075199;28;20127;-69
2023/12/15 04:23:52;;;;;;;1.83;1.08;;;;;;;;;;5085451;28;20135;-68
2023/12/15 04:27:32;;;;;;;3.47;1.40;;;;;;;;;;5071192;28;20059;-68
2023/12/15 04:31:14;;;;;;;2.20;1.40;;;;;;;;;;5079702;28;20056;-68
2023/12/15 04:34:57;;;;;;;3.10;1.30;;;;;;;;;;5079909;28;20412;-67
2023/12/15 04:38:37;;;;;;;3.50;1.40;;;;;;;;;;5079255;28;20055;-68
2023/12/15 04:42:17;;;;;;;3.47;1.50;;;;;;;;;;5080080;28;20043;-66
2023/12/15 04:45:58;;;;;;;5.82;1.50;;;;;;;;;;5085595;28;20036;-66
2023/12/15 04:49:38;;;;;;;6.55;1.60;;;;;;;;;;5080347;28;20048;-68
2023/12/15 04:53:22;;;;;;;4.70;1.33;;;;;;;;;;5079337;28;20044;-69
2023/12/15 04:57:09;;;;;;;3.85;1.50;;;;;;;;;;5074970;28;20444;-70
2023/12/15 05:00:53;;;;;;;5.80;1.45;;;;;;;;;;5069695;28;20336;-69
2023/12/15 05:04:36;;;;;;;4.22;1.10;;;;;;;;;;5083642;28;20044;-68
2023/12/15 05:08:19;;;;;;;4.15;1.33;;;;;;;;;;5082035;28;20131;-68
2023/12/15 05:11:59;;;;;;;2.58;1.30;;;;;;;;;;5078089;28;20076;-71
2023/12/15 05:15:39;;;;;;;4.35;1.48;;;;;;;;;;5079261;28;20471;-67
2023/12/15 05:19:20;;;;;;;6.70;1.38;;;;;;;;;;5074492;28;20044;-67
2023/12/15 05:23:00;;;;;;;8.05;1.83;;;;;;;;;;5089027;28;20109;-67
2023/12/15 05:26:40;;;;;;;4.72;1.38;;;;;;;;;;5081197;28;20051;-68
2023/12/15 05:30:22;;;;;;;3.67;1.80;;;;;;;;;;5081398;28;20062;-70
2023/12/15 05:34:03;;;;;;;3.42;1.42;;;;;;;;;;5080948;28;20285;-68
2023/12/15 05:37:44;;;;;;;3.03;1.50;;;;;;;;;;5077637;28;20317;-72
2023/12/15 05:41:27;;;;;;;6.97;1.90;;;;;;;;;;5084155;28;20072;-68
2023/12/15 05:45:08;;;;;;;5.57;2.40;;;;;;;;;;5079455;28;20040;-69
2023/12/15 05:48:49;;;;;;;8.55;2.83;;;;;;;;;;5083035;28;20048;-69
2023/12/15 05:52:30;;;;;;;7.88;2.75;;;;;;;;;;5083661;28;20368;-70
2023/12/15 05:56:10;;;;;;;7.20;2.70;;;;;;;;;;5073175;28;20128;-70
2023/12/15 05:59:51;;;;;;;9.43;3.03;;;;;;;;;;5071147;28;20138;-71
2023/12/15 06:03:32;;;;;;;8.70;3.33;;;;;;;;;;5076157;28;20455;-69
2023/12/15 06:07:15;;;;;;;9.45;3.13;;;;;;;;;;5081727;28;20096;-71
2023/12/15 06:10:57;;;;;;;7.07;3.88;;;;;;;;;;5082982;28;20085;-68
2023/12/15 06:14:38;;;;;;;10.40;3.38;;;;;;;;;;5083145;28;20048;-69
2023/12/15 06:18:18;;;;;;;11.98;3.42;;;;;;;;;;5069714;28;20083;-70
2023/12/15 06:21:44;;;;;;;8.70;3.28;;;;;;;;;;5069055;28;20527;-70
2023/12/15 06:25:05;;;;;;;;;;;;;;;;;;5074176;28;20043;-69
2023/12/15 06:28:48;;;;;;;10.00;3.95;;;;;;;;;;5082553;28;19931;-69
2023/12/15 06:32:30;;;;;;;13.07;5.07;;;;;;;;;;5070346;28;20056;-69
2023/12/15 06:36:13;;;;;;;12.30;4.97;;;;;;;;;;5078912;28;20216;-70
2023/12/15 06:39:55;;;;;;;12.30;5.90;;;;;;;;;;5075466;28;20126;-70
2023/12/15 06:43:35;;;;;;;11.88;5.68;;;;;;;;;;5080680;28;20687;-69
2023/12/15 06:47:15;;;;;;;12.35;6.03;;;;;;;;;;5082240;28;20068;-69
2023/12/15 06:50:57;;;;;;;18.20;6.63;;;;;;;;;;5079765;28;20411;-69
2023/12/15 06:54:37;;;;;;;19.63;5.97;;;;;;;;;;5079348;28;20048;-68
2023/12/15 06:58:18;;;;;;;11.30;5.00;;;;;;;;;;5084551;28;20859;-68
2023/12/15 07:02:02;;;;;;;12.45;5.28;;;;;;;;;;5079059;28;20056;-71
2023/12/15 07:05:42;;;;;;;11.27;5.38;;;;;;;;;;5079168;28;20050;-69
2023/12/15 07:09:23;;;;;;;16.35;5.20;;;;;;;;;;5081028;28;20093;-68
2023/12/15 07:13:05;;;;;;;15.35;4.72;;;;;;;;;;5079102;28;20516;-70
2023/12/15 07:16:46;;;;;;;10.73;5.00;;;;;;;;;;5074531;28;20407;-69
2023/12/15 07:19:41;;;;;;;15.00;4.57;;;;;;;;;;5076501;28;20407;-68
2023/12/15 07:22:07;;;;;;;12.25;4.70;;;;;;;;;;5072319;28;20271;-72
2023/12/15 07:24:34;;;;;;;15.88;4.88;;;;;;;;;;5081370;28;20055;-73
2023/12/15 07:27:41;;;;;;;17.15;5.05;;;;;;;;;;5105830;27;20052;-72
2023/12/15 07:31:21;;;;;;;10.52;4.80;;;;;;;;;;5077560;28;20062;-70
2023/12/15 07:35:03;;;;;;;13.52;4.65;;;;;;;;;;5082320;28;20456;-69
2023/12/15 07:38:42;;;;;;;16.85;4.00;;;;;;;;;;5070424;28;20135;-70
2023/12/15 07:42:26;;;;;;;13.38;4.82;;;;;;;;;;5075363;28;20089;-67
2023/12/15 07:46:05;;;;;;;14.27;4.10;;;;;;;;;;5079243;28;20040;-71
2023/12/15 07:49:45;;;;;;;14.52;4.40;;;;;;;;;;5075853;28;20055;-68
2023/12/15 07:53:26;;;;;;;16.48;3.75;;;;;;;;;;5079795;28;20480;-68
2023/12/15 07:57:08;;;;;;;9.80;2.70;;;;;;;;;;5085770;28;20088;-68
2023/12/15 08:00:51;;;;;;;10.40;3.38;;;;;;;;;;5082558;28;20079;-68
2023/12/15 08:04:30;;;;;;;14.57;3.17;;;;;;;;;;5081889;28;20084;-69
2023/12/15 08:08:10;;;;;;;11.60;3.38;;;;;;;;;;5090952;28;20271;-69
2023/12/15 08:11:51;;;;;;;21.58;3.40;;;;;;;;;;5081920;28;20493;-68
2023/12/15 08:15:31;;;;;;;26.63;3.95;;;;;;;;;;5091454;28;20166;-70
2023/12/15 08:19:11;;;;;;;21.98;4.65;;;;;;;;;;5092203;28;20055;-69
2023/12/15 08:22:51;;;;;;;14.35;4.00;;;;;;;;;;5086086;28;20484;-72
2023/12/15 08:26:40;;;;;;;11.93;3.83;;;;;;;;;;5083039;28;20521;-71
2023/12/15 08:30:20;;;;;;;12.05;4.43;;;;;;;;;;5083213;28;20052;-69
2023/12/15 08:34:07;;;;;;;19.05;3.80;;;;;;;;;;5083108;28;20537;-69
2023/12/15 08:37:49;;;;;;;15.70;4.78;;;;;;;;;;5085399;28;20051;-68
2023/12/15 08:41:32;;;;;;;17.38;3.60;;;;;;;;;;5086502;28;20492;-68
2023/12/15 08:45:12;;;;;;;15.65;4.25;;;;;;;;;;5081165;28;20105;-69
2023/12/15 08:48:53;;;;;;;19.55;4.38;;;;;;;;;;5088229;28;20051;-70
2023/12/15 08:52:33;;;;;;;19.98;3.85;;;;;;;;;;5087371;28;20031;-71
2023/12/15 08:56:13;;;;;;;11.82;4.15;;;;;;;;;;5085020;28;20040;-69
2023/12/15 08:59:54;;;;;;;15.63;4.95;;;;;;;;;;5086180;28;20048;-70
2023/12/15 09:03:36;;;;;;;15.15;4.80;;;;;;;;;;5093529;28;20036;-70
2023/12/15 09:07:17;;;;;;;16.40;4.90;;;;;;;;;;5081194;28;20107;-69
2023/12/15 09:10:57;;;;;;;15.02;5.03;;;;;;;;;;5092848;27;20138;-69
2023/12/15 09:14:38;;;;;;;17.27;5.32;;;;;;;;;;5091684;28;20117;-67
2023/12/15 09:18:23;;;;;;;16.52;4.95;;;;;;;;;;5092320;27;20067;-71
2023/12/15 09:22:05;;;;;;;13.98;5.05;;;;;;;;;;5078730;28;20126;-71
2023/12/15 09:25:47;;;;;;;11.95;4.65;;;;;;;;;;5089690;28;20487;-71
2023/12/15 09:29:25;;;;;;;15.68;4.43;;;;;;;;;;5097415;28;20310;-70
2023/12/15 09:33:05;;;;;;;18.15;4.10;;;;;;;;;;5092277;28;20050;-69
2023/12/15 09:36:46;;;;;;;12.15;3.70;;;;;;;;;;5092042;28;20058;-69
2023/12/15 09:40:29;;;;;;;14.43;3.03;;;;;;;;;;5084548;28;20039;-68
2023/12/15 09:44:09;;;;;;;11.35;3.00;;;;;;;;;;5096968;28;20117;-71
2023/12/15 09:47:49;;;;;;;14.75;3.38;;;;;;;;;;5097206;27;20498;-68
2023/12/15 09:51:29;;;;;;;13.30;4.40;;;;;;;;;;5087868;28;20044;-70
2023/12/15 09:55:10;;;;;;;9.55;3.38;;;;;;;;;;5087445;28;20047;-71
2023/12/15 09:58:50;;;;;;;12.05;3.35;;;;;;;;;;5094619;27;20036;-70
2023/12/15 10:02:32;;;;;;;12.52;3.20;;;;;;;;;;5098900;28;20048;-70
2023/12/15 10:06:12;;;;;;;13.02;4.00;;;;;;;;;;5089959;28;20047;-69
2023/12/15 10:09:52;;;;;;;10.98;4.20;;;;;;;;;;5092541;28;20039;-68
2023/12/15 10:13:36;;;;;;;13.52;3.55;;;;;;;;;;5084511;28;20040;-71
2023/12/15 10:17:18;;;;;;;21.90;3.80;;;;;;;;;;5085624;28;20066;-70
2023/12/15 10:20:58;;;;;;;15.45;3.70;;;;;;;;;;5085093;28;20088;-70
2023/12/15 10:24:41;;;;;;;9.63;3.80;;;;;;;;;;5089983;28;20040;-70
2023/12/15 10:28:24;;;;;;;11.00;3.25;;;;;;;;;;5085338;28;20044;-69
2023/12/15 10:32:06;;;;;;;12.23;4.13;;;;;;;;;;5076948;28;20326;-69
2023/12/15 10:35:47;;;;;;;10.27;4.60;;;;;;;;;;5086525;28;20039;-70
2023/12/15 10:39:27;;;;;;;13.82;4.43;;;;;;;;;;5085216;28;20101;-72
2023/12/15 10:43:08;;;;;;;13.85;4.45;;;;;;;;;;5086037;28;20052;-69
2023/12/15 10:46:48;;;;;;;9.65;3.90;;;;;;;;;;5088514;28;20040;-71
2023/12/15 10:50:29;;;;;;;14.57;3.92;;;;;;;;;;5089033;28;20043;-71
2023/12/15 10:54:11;;;;;;;13.98;3.53;;;;;;;;;;5080881;28;20458;-70
2023/12/15 10:57:51;;;;;;;13.18;3.72;;;;;;;;;;5078232;28;20517;-69
2023/12/15 11:01:31;;;;;;;9.63;3.08;;;;;;;;;;5089158;28;20043;-70
2023/12/15 11:05:12;;;;;;;12.05;3.15;;;;;;;;;;5084464;28;20036;-70
2023/12/15 11:08:53;;;;;;;7.85;2.40;;;;;;;;;;5089493;28;20495;-71
2023/12/15 11:12:22;;;;;;;7.47;2.63;;;;;;;;;;5086090;28;20063;-70
2023/12/15 11:16:00;;;;;;;6.82;1.75;;;;;;;;;;5084778;28;20048;-70
2023/12/15 11:19:40;;;;;;;4.03;1.27;;;;;;;;;;5079898;28;20101;-71
2023/12/15 11:23:30;;;;;;;2.17;1.15;;;;;;;;;;5082364;28;20059;-70
2023/12/15 11:27:11;;;;;;;2.92;1.20;;;;;;;;;;5081869;28;20083;-69
2023/12/15 11:31:06;;;;;;;2.08;0.90;;;;;;;;;;5081555;28;20172;-70
2023/12/15 11:34:57;;;;;;;2.85;1.20;;;;;;;;;;5083451;28;20128;-70
2023/12/15 11:38:38;;;;;;;2.25;0.95;;;;;;;;;;5082062;28;20423;-69
2023/12/15 11:42:18;;;;;;;4.05;1.58;;;;;;;;;;5085090;28;20081;-71
2023/12/15 11:45:59;;;;;;;2.15;1.30;;;;;;;;;;5086257;28;20051;-69
2023/12/15 11:49:46;;;;;;;5.28;1.10;;;;;;;;;;5082468;28;20044;-71
2023/12/15 11:53:28;;;;;;;2.28;0.90;;;;;;;;;;5083930;28;20151;-72
2023/12/15 11:57:08;;;;;;;3.83;0.90;;;;;;;;;;5080396;28;20370;-69
2023/12/15 12:00:49;;;;;;;3.42;0.80;;;;;;;;;;5088372;28;20039;-71
2023/12/15 12:04:38;;;;;;;2.65;1.50;;;;;;;;;;5077293;28;20407;-69
2023/12/15 12:08:18;;;;;;;6.07;0.93;;;;;;;;;;5084282;28;20736;-70
2023/12/15 12:12:00;;;;;;;3.55;1.17;;;;;;;;;;5076160;28;20360;-70
2023/12/15 12:15:43;;;;;;;2.30;0.90;;;;;;;;;;5079642;28;20036;-69
2023/12/15 12:19:23;;;;;;;1.60;1.10;;;;;;;;;;5095744;28;20052;-68
2023/12/15 12:23:05;;;;;;;17.00;5.82;;;;;;;;;;5083786;28;20566;-72
2023/12/15 12:26:47;;;;;;;14.05;4.82;;;;;;;;;;5088988;28;20048;-70
2023/12/15 12:30:13;;;;;;;7.82;4.15;;;;;;;;;;5082614;28;20062;-69
2023/12/15 12:33:53;;;;;;;8.85;3.25;;;;;;;;;;5086063;28;20076;-70
2023/12/15 12:37:34;;;;;;;6.30;2.63;;;;;;;;;;5083696;28;20137;-70
2023/12/15 12:41:14;;;;;;;4.05;1.90;;;;;;;;;;5069079;28;20036;-71
2023/12/15 12:44:54;;;;;;;14.38;4.18;;;;;;;;;;5076331;28;20450;-72
2023/12/15 12:48:35;;;;;;;5.05;2.60;;;;;;;;;;5076585;28;20094;-70
2023/12/15 12:52:15;;;;;;;9.70;3.03;;;;;;;;;;5087976;28;20376;-72
2023/12/15 12:55:56;;;;;;;6.38;3.40;;;;;;;;;;5078289;28;20132;-68
2023/12/15 12:59:39;;;;;;;7.38;3.13;;;;;;;;;;5084602;28;20177;-71
2023/12/15 13:03:20;;;;;;;6.90;2.92;;;;;;;;;;5105268;28;20046;-69
2023/12/15 13:07:06;;;;;;;11.95;2.80;;;;;;;;;;5085172;28;20419;-71
2023/12/15 13:10:46;;;;;;;9.63;2.35;;;;;;;;;;5091072;28;20063;-71
2023/12/15 13:14:26;;;;;;;5.65;1.88;;;;;;;;;;5082383;28;20040;-70
2023/12/15 13:18:09;;;;;;;4.35;1.85;;;;;;;;;;5091468;28;20052;-70
2023/12/15 13:21:48;;;;;;;15.27;3.30;;;;;;;;;;5088974;28;20051;-70
2023/12/15 13:25:28;;;;;;;7.63;3.00;;;;;;;;;;5091283;28;20101;-73
2023/12/15 13:29:09;;;;;;;10.85;2.63;;;;;;;;;;5089057;28;20445;-70
2023/12/15 13:32:49;;;;;;;9.25;3.42;;;;;;;;;;5091491;28;20400;-72
2023/12/15 13:36:29;;;;;;;9.75;2.70;;;;;;;;;;5079390;28;20032;-71
2023/12/15 13:40:11;;;;;;;6.45;2.40;;;;;;;;;;5073735;28;20348;-69
2023/12/15 13:43:50;;;;;;;4.03;1.92;;;;;;;;;;5090102;27;20043;-71
2023/12/15 13:47:31;;;;;;;6.93;3.15;;;;;;;;;;5098664;28;20221;-71
2023/12/15 13:51:11;;;;;;;5.38;2.80;;;;;;;;;;5096097;28;20093;-72
2023/12/15 13:54:51;;;;;;;7.72;1.95;;;;;;;;;;5080489;28;20087;-71
2023/12/15 13:58:33;;;;;;;4.35;1.83;;;;;;;;;;5089729;28;20107;-70
2023/12/15 14:02:13;;;;;;;4.65;2.03;;;;;;;;;;5087405;28;20056;-72
2023/12/15 14:05:53;;;;;;;5.13;1.83;;;;;;;;;;5082452;28;20055;-71
2023/12/15 14:09:35;;;;;;;7.05;3.15;;;;;;;;;;5084327;28;20064;-70
2023/12/15 14:13:15;;;;;;;8.18;2.55;;;;;;;;;;5085163;28;20075;-72
2023/12/15 14:16:56;;;;;;;18.73;8.27;;;;;;;;;;5085629;28;20035;-71
2023/12/15 14:20:37;;;;;;;16.63;8.23;;;;;;;;;;5094468;28;20101;-73
2023/12/15 14:24:18;;;;;;;6.10;2.58;;;;;;;;;;5099220;27;20048;-70
2023/12/15 14:27:58;;;;;;;8.10;3.70;;;;;;;;;;5090538;28;20368;-71
2023/12/15 14:31:38;;;;;;;9.38;1.98;;;;;;;;;;5084713;28;20048;-73
2023/12/15 14:35:18;;;;;;;3.50;1.60;;;;;;;;;;5079881;28;20107;-71
2023/12/15 14:38:58;;;;;;;4.07;1.35;;;;;;;;;;5087552;28;20594;-72
2023/12/15 14:42:39;;;;;;;6.93;2.40;;;;;;;;;;5081575;28;20035;-70
2023/12/15 14:46:19;;;;;;;5.22;1.80;;;;;;;;;;5081381;28;20044;-72
2023/12/15 14:50:00;;;;;;;3.78;1.88;;;;;;;;;;5085855;28;20530;-72
2023/12/15 14:53:40;;;;;;;11.73;2.17;;;;;;;;;;5083885;28;20048;-71
2023/12/15 14:57:20;;;;;;;11.43;1.83;;;;;;;;;;5086765;28;20503;-71
2023/12/15 15:01:01;;;;;;;8.18;2.30;;;;;;;;;;5086783;28;20043;-72
2023/12/15 15:04:41;;;;;;;11.52;2.08;;;;;;;;;;5077695;28;20046;-71
2023/12/15 15:08:21;;;;;;;9.23;1.50;;;;;;;;;;5086877;28;20040;-71
2023/12/15 15:12:03;;;;;;;7.03;1.52;;;;;;;;;;5084784;28;20036;-71
2023/12/15 15:15:42;;;;;;;10.43;3.03;;;;;;;;;;5084069;28;20072;-71
2023/12/15 15:19:24;;;;;;;6.65;1.75;;;;;;;;;;5087480;28;20123;-73
2023/12/15 15:23:04;;;;;;;7.32;2.08;;;;;;;;;;5088275;28;20044;-71
2023/12/15 15:26:44;;;;;;;12.20;1.58;;;;;;;;;;5083544;28;20055;-71
2023/12/15 15:30:26;;;;;;;15.18;1.85;;;;;;;;;;5085404;28;20408;-70
2023/12/15 15:34:06;;;;;;;9.20;1.60;;;;;;;;;;5081685;28;20044;-71
2023/12/15 15:37:47;;;;;;;7.75;1.80;;;;;;;;;;5083289;28;20040;-71
2023/12/15 15:41:27;;;;;;;6.03;1.55;;;;;;;;;;5082581;28;20242;-71
2023/12/15 15:45:09;;;;;;;5.78;1.58;;;;;;;;;;5077270;28;20051;-69
2023/12/15 15:48:51;;;;;;;6.28;1.50;;;;;;;;;;5084385;28;20041;-71
2023/12/15 15:52:32;;;;;;;6.30;2.20;;;;;;;;;;5086988;28;20073;-70
2023/12/15 15:56:12;;;;;;;8.15;2.20;;;;;;;;;;5071924;28;20083;-67
2023/12/15 15:59:57;;;;;;;3.67;1.20;;;;;;;;;;5076813;28;20431;-69
2023/12/15 16:03:38;;;;;;;11.07;1.60;;;;;;;;;;5076341;28;20052;-72
2023/12/15 16:07:17;;;;;;;16.92;1.65;;;;;;;;;;5066659;28;20070;-69
2023/12/15 16:10:58;;;;;;;3.72;1.40;;;;;;;;;;5075061;28;20048;-67
2023/12/15 16:14:39;;;;;;;11.27;1.83;;;;;;;;;;5077477;28;20040;-69
2023/12/15 16:18:21;;;;;;;4.40;1.38;;;;;;;;;;5078411;28;20183;-70
2023/12/15 16:22:01;;;;;;;5.50;1.73;;;;;;;;;;5074140;28;20056;-67
2023/12/15 16:25:42;;;;;;;3.95;1.33;;;;;;;;;;5079006;28;20055;-69
2023/12/15 16:29:23;;;;;;;3.08;1.20;;;;;;;;;;5085001;28;20381;-68
2023/12/15 16:33:04;;;;;;;3.72;1.20;;;;;;;;;;5087698;28;20055;-68
2023/12/15 16:36:44;;;;;;;4.10;1.02;;;;;;;;;;5080972;28;20044;-70
2023/12/15 16:40:25;;;;;;;6.93;1.30;;;;;;;;;;5082352;28;20048;-67
2023/12/15 16:44:05;;;;;;;6.43;1.20;;;;;;;;;;5086298;27;20044;-67
2023/12/15 16:47:46;;;;;;;6.20;1.48;;;;;;;;;;5069943;27;20492;-69
2023/12/15 16:51:26;;;;;;;13.35;1.80;;;;;;;;;;5077395;28;20040;-69
2023/12/15 16:55:06;;;;;;;11.65;1.70;;;;;;;;;;5073245;28;20056;-68
2023/12/15 16:58:46;;;;;;;6.40;1.48;;;;;;;;;;5080398;27;20573;-69
2023/12/15 17:02:27;;;;;;;7.57;1.60;;;;;;;;;;5077318;28;20093;-69
2023/12/15 17:06:11;;;;;;;7.22;2.38;;;;;;;;;;5073919;28;21173;-69
2023/12/15 17:09:49;;;;;;;11.52;4.13;;;;;;;;;;5085417;28;20112;-72
2023/12/15 17:13:29;;;;;;;11.55;4.20;;;;;;;;;;5083183;28;20062;-67
2023/12/15 17:17:09;;;;;;;12.43;3.38;;;;;;;;;;5076163;27;20477;-71
2023/12/15 17:20:51;;;;;;;13.13;3.63;;;;;;;;;;5080874;28;20055;-70
2023/12/15 17:24:31;;;;;;;8.30;1.88;;;;;;;;;;5078162;28;20062;-69
2023/12/15 17:28:12;;;;;;;9.27;2.00;;;;;;;;;;5082689;28;20499;-69
2023/12/15 17:31:53;;;;;;;5.38;1.58;;;;;;;;;;5080588;28;20071;-68
2023/12/15 17:35:34;;;;;;;6.32;1.70;;;;;;;;;;5074682;28;20052;-68
2023/12/15 17:39:15;;;;;;;7.13;1.50;;;;;;;;;;5081494;28;20392;-68
2023/12/15 17:42:55;;;;;;;8.52;2.60;;;;;;;;;;5080482;28;20407;-68
2023/12/15 17:46:40;;;;;;;11.35;3.80;;;;;;;;;;5077359;28;20050;-70
2023/12/15 17:50:21;;;;;;;18.27;5.78;;;;;;;;;;5079915;28;20040;-69
2023/12/15 17:54:01;;;;;;;26.77;5.43;;;;;;;;;;5082519;28;20477;-68
2023/12/15 17:57:41;;;;;;;14.48;4.50;;;;;;;;;;5080407;28;20171;-66
2023/12/15 18:01:22;;;;;;;12.63;3.40;;;;;;;;;;5081734;28;20109;-68
2023/12/15 18:05:02;;;;;;;9.55;2.78;;;;;;;;;;5072776;28;20129;-68
2023/12/15 18:08:42;;;;;;;10.10;3.00;;;;;;;;;;5076948;28;20099;-70
2023/12/15 18:12:24;;;;;;;11.75;2.78;;;;;;;;;;5077988;28;20052;-70
2023/12/15 18:16:06;;;;;;;15.00;3.03;;;;;;;;;;5075175;28;20052;-72
2023/12/15 18:19:46;;;;;;;11.70;2.70;;;;;;;;;;5082190;28;20542;-72
2023/12/15 18:23:27;;;;;;;11.70;2.85;;;;;;;;;;5076395;28;20060;-74
2023/12/15 18:27:07;;;;;;;13.00;2.90;;;;;;;;;;5082019;28;20071;-72
2023/12/15 18:30:48;;;;;;;10.85;2.65;;;;;;;;;;5074715;28;20074;-71
2023/12/15 18:34:29;;;;;;;10.50;2.90;;;;;;;;;;5074525;28;20082;-69
2023/12/15 18:38:09;;;;;;;13.13;3.20;;;;;;;;;;5075658;28;20152;-70
2023/12/15 18:41:57;;;;;;;16.02;4.63;;;;;;;;;;5077963;28;20100;-72
2023/12/15 18:45:38;;;;;;;13.05;3.90;;;;;;;;;;5072233;28;20042;-69
2023/12/15 18:49:20;;;;;;;17.95;2.35;;;;;;;;;;5081573;28;20058;-71
2023/12/15 18:53:00;;;;;;;13.38;2.40;;;;;;;;;;5080483;28;20155;-72
2023/12/15 18:56:44;;;;;;;15.70;2.90;;;;;;;;;;5075663;28;20613;-72
2023/12/15 19:00:23;;;;;;;13.20;2.10;;;;;;;;;;5079136;28;20392;-71
2023/12/15 19:04:05;;;;;;;11.05;2.33;;;;;;;;;;5078930;28;20051;-72
2023/12/15 19:07:47;;;;;;;5.95;1.92;;;;;;;;;;5076398;28;20622;-73
2023/12/15 19:10:46;;;;;;;9.88;2.22;;;;;;;;;;5078396;28;20043;-72
2023/12/15 19:13:13;;;;;;;9.30;2.10;;;;;;;;;;5074611;28;20052;-72
2023/12/15 19:15:38;;;;;;;12.48;2.60;;;;;;;;;;5068424;28;20123;-72
2023/12/15 19:18:09;;;;;;;8.32;2.03;;;;;;;;;;5080106;28;20056;-72
2023/12/15 19:20:35;;;;;;;8.52;1.92;;;;;;;;;;5080068;28;20052;-72
2023/12/15 19:23:02;;;;;;;8.82;2.67;;;;;;;;;;5079238;28;20079;-73
2023/12/15 19:25:28;;;;;;;10.75;2.53;;;;;;;;;;5078716;28;20040;-74
2023/12/15 19:28:01;;;;;;;10.13;2.42;;;;;;;;;;5062591;28;20059;-71
2023/12/15 19:30:28;;;;;;;6.88;2.40;;;;;;;;;;5059260;28;20097;-72
2023/12/15 19:32:54;;;;;;;9.63;3.30;;;;;;;;;;5059122;28;20060;-72
2023/12/15 19:35:20;;;;;;;17.40;3.50;;;;;;;;;;5057277;28;20488;-72
2023/12/15 19:37:48;;;;;;;8.93;2.70;;;;;;;;;;5059337;28;20044;-72
2023/12/15 19:40:14;;;;;;;16.17;3.40;;;;;;;;;;5077890;28;20048;-71
2023/12/15 19:42:40;;;;;;;11.77;3.20;;;;;;;;;;5072735;28;20070;-72
2023/12/15 19:45:08;;;;;;;8.80;2.97;;;;;;;;;;5056603;28;20068;-72
2023/12/15 19:47:36;;;;;;;6.72;2.75;;;;;;;;;;5061160;28;20511;-72
2023/12/15 19:50:03;;;;;;;11.43;4.15;;;;;;;;;;5059536;28;20539;-72
2023/12/15 19:52:31;;;;;;;23.95;4.80;;;;;;;;;;5058394;28;20071;-71
2023/12/15 19:55:00;;;;;;;9.82;3.85;;;;;;;;;;5056787;28;20412;-72
2023/12/15 19:57:28;;;;;;;11.48;3.53;;;;;;;;;;5059859;28;20065;-71
2023/12/15 19:59:54;;;;;;;15.45;4.72;;;;;;;;;;5061630;28;20500;-70
2023/12/15 20:02:21;;;;;;;9.82;3.58;;;;;;;;;;5058025;28;20051;-71
2023/12/15 20:04:49;;;;;;;12.18;4.03;;;;;;;;;;5057916;28;20057;-70
2023/12/15 20:07:15;;;;;;;10.52;3.83;;;;;;;;;;5053160;28;20048;-70
2023/12/15 20:09:41;;;;;;;10.18;3.65;;;;;;;;;;5057199;28;20044;-70
2023/12/15 20:12:11;;;;;;;7.97;3.30;;;;;;;;;;5057063;28;20060;-69
2023/12/15 20:14:36;;;;;;;8.98;3.47;;;;;;;;;;5054622;28;21685;-72
2023/12/15 20:17:06;;;;;;;8.25;3.20;;;;;;;;;;5056359;28;20044;-71
2023/12/15 20:19:31;;;;;;;12.10;3.67;;;;;;;;;;5058775;28;20060;-70
2023/12/15 20:21:58;;;;;;;12.27;3.22;;;;;;;;;;5056128;28;20045;-69
2023/12/15 20:24:25;;;;;;;11.77;3.85;;;;;;;;;;5056143;28;20060;-69
2023/12/15 20:26:52;;;;;;;9.65;3.80;;;;;;;;;;5060510;28;20105;-69
2023/12/15 20:29:18;;;;;;;7.07;3.28;;;;;;;;;;5060566;28;20049;-68
2023/12/15 20:31:45;;;;;;;12.18;3.53;;;;;;;;;;5087002;28;20044;-70
2023/12/15 20:34:11;;;;;;;11.13;3.70;;;;;;;;;;5055523;28;20523;-73
2023/12/15 20:36:37;;;;;;;12.90;4.18;;;;;;;;;;5052860;28;20151;-57
2023/12/15 20:39:03;;;;;;;10.52;3.42;;;;;;;;;;5057989;28;20966;-59
2023/12/15 20:41:31;;;;;;;15.30;3.20;;;;;;;;;;5054755;28;20602;-56
2023/12/15 20:43:57;;;;;;;13.13;5.07;;;;;;;;;;5054616;28;20908;-59
2023/12/15 20:46:27;;;;;;;15.90;5.90;;;;;;;;;;5059397;28;20048;-59
2023/12/15 20:48:53;;;;;;;13.52;4.80;;;;;;;;;;5056050;28;20538;-60
2023/12/15 20:51:23;;;;;;;11.32;4.57;;;;;;;;;;5056047;28;20067;-59
2023/12/15 20:53:48;;;;;;;10.90;3.72;;;;;;;;;;5056113;28;20041;-57
2023/12/15 20:56:28;;;;;;;9.15;3.63;;;;;;;;;;5054926;28;20114;-56
2023/12/15 20:58:54;;;;;;;10.77;4.03;;;;;;;;;;5060348;28;20556;-59